Time;durP1;ratioP1;P1;durP2;ratioP2;P2;SDS_P1;SDS_P2;PMS_P1;PMS_P2;Temp;Humidity;BMP_temperature;BMP_pressure;BME280_temperature;BME280_humidity;BME280_pressure;Samples;Min_cycle;Max_cycle;Signal;HPM_P1;HPM_P2
2023/05/05 00:00:24;;;;;;;2.30;1.70;;;15.50;99.90;;;;;;5076574;28;20929;-84
2023/05/05 00:02:51;;;;;;;4.23;1.43;;;15.40;99.90;;;;;;5076145;28;20497;-84
2023/05/05 00:05:20;;;;;;;3.13;2.53;;;15.30;99.90;;;;;;5076647;28;20438;-84
2023/05/05 00:07:46;;;;;;;3.57;2.27;;;15.30;99.90;;;;;;5076319;28;20460;-84
2023/05/05 00:10:13;;;;;;;2.23;2.13;;;15.20;99.90;;;;;;5076574;28;20453;-84
2023/05/05 00:12:40;;;;;;;2.60;1.60;;;15.10;99.90;;;;;;5076182;28;20472;-85
2023/05/05 00:15:07;;;;;;;2.20;2.00;;;15.10;99.90;;;;;;5076480;28;20449;-84
2023/05/05 00:17:34;;;;;;;2.03;1.70;;;15.00;99.90;;;;;;5076428;28;20453;-84
2023/05/05 00:20:01;;;;;;;2.00;1.90;;;15.00;99.90;;;;;;5076042;28;20967;-84
2023/05/05 00:22:29;;;;;;;1.80;1.70;;;14.90;99.90;;;;;;5076192;28;20485;-85
2023/05/05 00:24:56;;;;;;;2.50;1.80;;;14.90;99.90;;;;;;5076278;28;20453;-84
2023/05/05 00:27:22;;;;;;;2.30;2.10;;;14.90;99.90;;;;;;5076291;28;20449;-85
2023/05/05 00:29:49;;;;;;;3.47;2.20;;;14.90;99.90;;;;;;5076217;28;20453;-85
2023/05/05 00:32:16;;;;;;;2.40;2.10;;;14.90;99.90;;;;;;5076155;28;20489;-85
2023/05/05 00:34:42;;;;;;;1.80;1.67;;;14.90;99.90;;;;;;5076128;28;20445;-85
2023/05/05 00:37:10;;;;;;;2.43;2.23;;;14.80;99.90;;;;;;5076128;28;20546;-84
2023/05/05 00:39:38;;;;;;;2.80;2.23;;;14.80;99.90;;;;;;5076076;28;20454;-84
2023/05/05 00:42:04;;;;;;;4.43;2.80;;;14.80;99.90;;;;;;5075603;28;21004;-85
2023/05/05 00:44:38;;;;;;;4.40;2.47;;;14.80;99.90;;;;;;5076031;28;20450;-84
2023/05/05 00:47:05;;;;;;;4.67;2.00;;;14.80;99.90;;;;;;5075960;28;20437;-84
2023/05/05 00:49:33;;;;;;;1.93;1.80;;;14.80;99.90;;;;;;5075852;28;20445;-85
2023/05/05 00:52:00;;;;;;;2.87;1.93;;;14.80;99.90;;;;;;5075806;28;20484;-85
2023/05/05 00:54:27;;;;;;;5.10;2.20;;;14.70;99.90;;;;;;5075792;28;20454;-84
2023/05/05 00:56:55;;;;;;;4.17;2.40;;;14.70;99.90;;;;;;5075422;28;20945;-84
2023/05/05 00:59:22;;;;;;;2.47;2.13;;;14.70;99.90;;;;;;5075722;28;20450;-84
2023/05/05 01:01:49;;;;;;;2.53;2.00;;;14.70;99.90;;;;;;5074361;28;20504;-84
2023/05/05 01:04:16;;;;;;;1.73;1.63;;;14.60;99.90;;;;;;5075574;28;20450;-85
2023/05/05 01:06:52;;;;;;;2.13;1.70;;;14.60;99.90;;;;;;5075239;28;20450;-84
2023/05/05 01:09:27;;;;;;;3.20;1.50;;;14.60;99.90;;;;;;5075632;28;20433;-84
2023/05/05 01:12:03;;;;;;;2.90;1.73;;;14.50;99.90;;;;;;5075447;28;20826;-84
2023/05/05 01:14:39;;;;;;;2.23;2.03;;;14.50;99.90;;;;;;5075237;28;20436;-84
2023/05/05 01:17:14;;;;;;;2.60;2.03;;;14.50;99.90;;;;;;5075383;28;20442;-84
2023/05/05 01:19:58;;;;;;;4.57;1.80;;;14.40;99.90;;;;;;5075382;28;20433;-84
2023/05/05 01:22:32;;;;;;;4.17;2.70;;;14.40;99.90;;;;;;5074865;28;20568;-85
2023/05/05 01:25:20;;;;;;;3.03;1.40;;;14.40;99.90;;;;;;5075423;28;20442;-84
2023/05/05 01:28:03;;;;;;;3.60;2.17;;;14.40;99.90;;;;;;5075157;28;20430;-83
2023/05/05 01:30:55;;;;;;;2.27;1.57;;;14.40;99.90;;;;;;5075991;28;20430;-85
2023/05/05 01:33:28;;;;;;;1.90;1.60;;;14.40;99.90;;;;;;5074995;28;20476;-85
2023/05/05 01:35:57;;;;;;;1.70;1.60;;;14.30;99.90;;;;;;5075066;28;20434;-84
2023/05/05 01:38:31;;;;;;;1.67;1.47;;;14.40;99.90;;;;;;5075002;28;20446;-84
2023/05/05 01:41:05;;;;;;;2.00;1.73;;;14.40;99.90;;;;;;5074904;28;20447;-84
2023/05/05 01:43:34;;;;;;;2.60;1.60;;;14.40;99.90;;;;;;5074760;28;20475;-84
2023/05/05 01:46:03;;;;;;;2.70;1.73;;;14.40;99.90;;;;;;5074842;28;20446;-85
2023/05/05 01:48:32;;;;;;;1.40;1.10;;;14.40;99.90;;;;;;5074744;28;20441;-84
2023/05/05 01:51:00;;;;;;;3.97;1.57;;;14.50;99.90;;;;;;5074760;28;20442;-85
2023/05/05 01:53:27;;;;;;;2.27;1.50;;;14.40;99.90;;;;;;5074607;28;20508;-85
2023/05/05 01:55:56;;;;;;;3.03;2.30;;;14.40;99.90;;;;;;5074267;28;20953;-85
2023/05/05 01:58:25;;;;;;;1.60;1.40;;;14.40;99.90;;;;;;5074186;28;20453;-85
2023/05/05 02:00:52;;;;;;;1.50;1.37;;;14.40;99.90;;;;;;5074225;28;20445;-85
2023/05/05 02:03:22;;;;;;;2.30;2.03;;;14.40;99.90;;;;;;5074340;28;20485;-85
2023/05/05 02:05:53;;;;;;;2.10;1.40;;;14.40;99.90;;;;;;5074419;28;20453;-85
2023/05/05 02:08:21;;;;;;;3.87;1.70;;;14.40;99.90;;;;;;5074415;28;20446;-84
2023/05/05 02:10:48;;;;;;;2.57;1.30;;;14.40;99.90;;;;;;5074294;28;20454;-85
2023/05/05 02:13:16;;;;;;;2.53;1.77;;;14.40;99.90;;;;;;5073829;28;20999;-85
2023/05/05 02:15:44;;;;;;;2.10;1.30;;;14.30;99.90;;;;;;5073889;28;20457;-85
2023/05/05 02:18:11;;;;;;;1.70;1.27;;;14.30;99.90;;;;;;5074142;28;20480;-85
2023/05/05 02:20:40;;;;;;;1.70;1.60;;;14.30;99.90;;;;;;5074149;28;20449;-85
2023/05/05 02:23:09;;;;;;;2.07;1.13;;;14.40;99.90;;;;;;5073584;28;21004;-84
2023/05/05 02:25:39;;;;;;;2.30;1.30;;;14.30;99.90;;;;;;5073685;28;20495;-84
2023/05/05 02:28:11;;;;;;;2.10;1.77;;;14.30;99.90;;;;;;5073706;28;20940;-84
2023/05/05 02:30:39;;;;;;;1.93;1.73;;;14.30;99.90;;;;;;5073991;28;20436;-85
2023/05/05 02:33:09;;;;;;;1.67;1.43;;;14.30;99.90;;;;;;5073818;28;20474;-85
2023/05/05 02:35:38;;;;;;;2.17;1.57;;;14.30;99.90;;;;;;5073818;28;20452;-85
2023/05/05 02:38:11;;;;;;;2.13;1.23;;;14.30;99.90;;;;;;5073833;28;20457;-85
2023/05/05 02:40:41;;;;;;;2.77;1.33;;;14.30;99.90;;;;;;5073832;28;20434;-84
2023/05/05 02:43:10;;;;;;;1.23;1.13;;;14.30;99.90;;;;;;5073659;28;20493;-84
2023/05/05 02:45:37;;;;;;;2.00;1.63;;;14.30;99.90;;;;;;5073724;28;20453;-85
2023/05/05 02:48:05;;;;;;;1.80;1.50;;;14.30;99.90;;;;;;5073343;28;20449;-85
2023/05/05 02:50:32;;;;;;;1.60;1.37;;;14.30;99.90;;;;;;5073652;28;20465;-85
2023/05/05 02:53:00;;;;;;;2.40;1.73;;;14.30;99.90;;;;;;5073537;28;20477;-84
2023/05/05 02:55:31;;;;;;;1.70;1.33;;;14.30;99.90;;;;;;5073580;28;20446;-84
2023/05/05 02:58:06;;;;;;;2.27;1.50;;;14.30;99.90;;;;;;5073602;28;20441;-85
2023/05/05 03:00:41;;;;;;;2.87;2.00;;;14.30;99.90;;;;;;5073726;28;20453;-85
2023/05/05 03:03:14;;;;;;;2.93;2.37;;;14.30;99.90;;;;;;5073079;28;20492;-85
2023/05/05 03:05:46;;;;;;;1.60;1.40;;;14.30;99.90;;;;;;5073203;28;20937;-84
2023/05/05 03:08:16;;;;;;;3.10;1.83;;;14.20;99.90;;;;;;5073481;28;20434;-85
2023/05/05 03:10:52;;;;;;;1.73;1.63;;;14.20;99.90;;;;;;5073214;28;20422;-85
2023/05/05 03:13:22;;;;;;;3.23;1.20;;;14.20;99.90;;;;;;5073368;28;20468;-84
2023/05/05 03:15:52;;;;;;;2.60;2.00;;;14.20;99.90;;;;;;5074178;28;20442;-84
2023/05/05 03:18:19;;;;;;;1.53;1.43;;;14.20;99.90;;;;;;5073362;28;20445;-85
2023/05/05 03:20:47;;;;;;;2.50;1.90;;;14.20;99.90;;;;;;5073286;28;20456;-85
2023/05/05 03:23:14;;;;;;;4.10;2.30;;;14.20;99.90;;;;;;5073502;28;20497;-85
2023/05/05 03:25:46;;;;;;;5.10;1.43;;;14.10;99.90;;;;;;5079672;28;20445;-84
2023/05/05 03:28:14;;;;;;;2.20;2.03;;;14.10;99.90;;;;;;5079870;28;20449;-84
2023/05/05 03:30:41;;;;;;;2.63;2.03;;;14.00;99.90;;;;;;5079853;28;20445;-84
2023/05/05 03:33:10;;;;;;;1.80;1.67;;;14.00;99.90;;;;;;5079787;28;20473;-84
2023/05/05 03:35:36;;;;;;;2.53;1.30;;;13.90;99.90;;;;;;5079805;28;20445;-84
2023/05/05 03:38:03;;;;;;;2.07;1.67;;;14.00;99.90;;;;;;5079807;28;20632;-84
2023/05/05 03:40:30;;;;;;;2.53;1.57;;;13.90;99.90;;;;;;5079442;28;20811;-84
2023/05/05 03:42:58;;;;;;;1.13;1.13;;;13.90;99.90;;;;;;5079703;28;20485;-84
2023/05/05 03:45:25;;;;;;;1.63;1.50;;;13.80;99.90;;;;;;5079752;28;20449;-84
2023/05/05 03:47:51;;;;;;;2.20;1.50;;;13.90;99.90;;;;;;5079712;28;20476;-85
2023/05/05 03:50:18;;;;;;;4.63;2.50;;;13.90;99.90;;;;;;5079462;28;20433;-84
2023/05/05 03:52:45;;;;;;;1.50;1.40;;;14.00;99.90;;;;;;5079619;28;20467;-85
2023/05/05 03:55:12;;;;;;;2.17;1.63;;;14.10;99.90;;;;;;5079382;28;20452;-84
2023/05/05 03:57:38;;;;;;;2.63;1.97;;;14.10;99.90;;;;;;5079629;28;20452;-84
2023/05/05 04:00:10;;;;;;;1.77;1.67;;;14.10;99.90;;;;;;5079414;28;20437;-84
2023/05/05 04:02:37;;;;;;;2.83;1.73;;;14.20;99.90;;;;;;5079058;28;20522;-85
2023/05/05 04:05:04;;;;;;;2.47;2.13;;;14.30;99.90;;;;;;5080568;28;20454;-84
2023/05/05 04:07:31;;;;;;;2.03;1.30;;;14.40;99.90;;;;;;5079555;28;20452;-84
2023/05/05 04:09:58;;;;;;;1.53;1.23;;;14.40;99.90;;;;;;5079115;28;20836;-84
2023/05/05 04:12:24;;;;;;;1.20;1.10;;;14.50;99.90;;;;;;5079206;28;20468;-84
2023/05/05 04:14:52;;;;;;;4.50;1.90;;;14.50;99.90;;;;;;5079172;28;21039;-85
2023/05/05 04:17:20;;;;;;;2.17;1.30;;;14.60;99.90;;;;;;5079472;28;20472;-84
2023/05/05 04:19:47;;;;;;;3.13;2.10;;;14.60;99.90;;;;;;5079434;28;20850;-85
2023/05/05 04:22:14;;;;;;;2.70;2.03;;;14.70;99.90;;;;;;5079150;28;20473;-85
2023/05/05 04:24:40;;;;;;;1.83;1.50;;;14.70;99.90;;;;;;5079054;28;20960;-85
2023/05/05 04:27:07;;;;;;;7.33;1.70;;;14.70;99.90;;;;;;5079367;28;20445;-85
2023/05/05 04:29:34;;;;;;;1.60;1.40;;;14.80;99.90;;;;;;5079092;28;20828;-84
2023/05/05 04:32:00;;;;;;;7.10;1.10;;;14.80;99.90;;;;;;5079287;28;20544;-84
2023/05/05 04:34:29;;;;;;;1.20;1.20;;;14.90;99.90;;;;;;5079305;28;20499;-84
2023/05/05 04:36:55;;;;;;;2.23;1.10;;;14.90;99.90;;;;;;5074995;28;20461;-84
2023/05/05 04:39:22;;;;;;;1.67;1.57;;;14.90;99.90;;;;;;5075716;28;20967;-83
2023/05/05 04:41:49;;;;;;;1.57;1.47;;;14.90;99.90;;;;;;5075721;28;20469;-84
2023/05/05 04:44:15;;;;;;;1.37;1.27;;;15.00;99.90;;;;;;5075926;28;20482;-84
2023/05/05 04:46:42;;;;;;;1.07;1.00;;;15.00;99.90;;;;;;5075980;28;20445;-84
2023/05/05 04:49:09;;;;;;;3.17;1.40;;;15.10;99.90;;;;;;5076507;28;20515;-84
2023/05/05 04:51:41;;;;;;;2.00;1.47;;;15.00;99.90;;;;;;5075798;28;20526;-84
2023/05/05 04:54:07;;;;;;;1.50;1.40;;;15.10;99.90;;;;;;5075596;28;20437;-84
2023/05/05 04:56:34;;;;;;;1.30;1.20;;;15.10;99.90;;;;;;5075806;28;20441;-84
2023/05/05 04:59:01;;;;;;;2.40;1.47;;;15.20;99.90;;;;;;5075795;28;20445;-84
2023/05/05 05:01:28;;;;;;;1.77;1.50;;;15.10;99.90;;;;;;5075324;28;20485;-84
2023/05/05 05:03:54;;;;;;;1.77;1.53;;;15.10;99.90;;;;;;5075334;28;20484;-84
2023/05/05 05:06:21;;;;;;;2.30;1.07;;;15.20;99.90;;;;;;5075350;28;20434;-84
2023/05/05 05:08:49;;;;;;;1.70;1.57;;;15.10;99.90;;;;;;5075522;28;20445;-84
2023/05/05 05:11:16;;;;;;;1.57;1.10;;;15.20;99.90;;;;;;5075446;28;20441;-84
2023/05/05 05:13:43;;;;;;;1.70;1.33;;;15.10;99.90;;;;;;5075239;28;20442;-84
2023/05/05 05:16:10;;;;;;;7.30;1.30;;;15.10;99.90;;;;;;5075403;28;20444;-84
2023/05/05 05:18:36;;;;;;;1.03;0.87;;;15.20;99.90;;;;;;5075312;28;20959;-84
2023/05/05 05:21:03;;;;;;;2.53;1.40;;;15.30;99.90;;;;;;5075329;28;20445;-84
2023/05/05 05:23:30;;;;;;;1.30;1.20;;;15.30;99.90;;;;;;5075312;28;20485;-84
2023/05/05 05:25:58;;;;;;;1.30;1.20;;;15.40;99.90;;;;;;5075230;28;20485;-84
2023/05/05 05:28:25;;;;;;;4.73;1.73;;;15.50;99.90;;;;;;5075237;28;20807;-84
2023/05/05 05:30:52;;;;;;;2.10;1.10;;;15.60;99.90;;;;;;5075168;28;20449;-84
2023/05/05 05:33:19;;;;;;;1.10;1.00;;;15.70;99.90;;;;;;5074902;28;20465;-83
2023/05/05 05:35:45;;;;;;;1.47;1.27;;;15.80;99.90;;;;;;5075029;28;20501;-84
2023/05/05 05:38:12;;;;;;;1.03;1.00;;;15.90;99.90;;;;;;5074926;28;20461;-83
2023/05/05 05:40:39;;;;;;;1.40;1.27;;;16.00;99.90;;;;;;5074913;28;20449;-84
2023/05/05 05:43:07;;;;;;;1.30;1.17;;;16.10;99.90;;;;;;5074533;28;20488;-84
2023/05/05 05:45:34;;;;;;;1.00;0.90;;;16.10;99.90;;;;;;5074831;28;20461;-83
2023/05/05 05:48:01;;;;;;;1.67;1.57;;;16.10;99.90;;;;;;5074136;28;20825;-84
2023/05/05 05:50:27;;;;;;;1.47;1.33;;;16.30;99.90;;;;;;5074714;28;20485;-84
2023/05/05 05:52:54;;;;;;;1.70;0.93;;;16.30;99.90;;;;;;5074601;28;20488;-84
2023/05/05 05:55:21;;;;;;;1.23;1.10;;;16.40;99.90;;;;;;5074649;28;20453;-84
2023/05/05 05:57:47;;;;;;;1.57;1.17;;;16.50;99.90;;;;;;5074588;28;20913;-84
2023/05/05 06:00:16;;;;;;;1.50;1.40;;;16.70;99.90;;;;;;5074296;28;20959;-84
2023/05/05 06:02:43;;;;;;;1.37;0.80;;;16.80;99.90;;;;;;5073977;28;20488;-84
2023/05/05 06:05:11;;;;;;;0.83;0.83;;;17.00;99.90;;;;;;5074413;28;20470;-83
2023/05/05 06:07:38;;;;;;;1.53;0.90;;;17.00;99.90;;;;;;5074037;28;20941;-84
2023/05/05 06:10:06;;;;;;;1.63;1.00;;;17.00;99.90;;;;;;5074360;28;20446;-84
2023/05/05 06:12:32;;;;;;;1.20;1.10;;;17.00;99.90;;;;;;5073904;28;20859;-84
2023/05/05 06:14:59;;;;;;;1.07;1.00;;;17.10;99.90;;;;;;5074343;28;20456;-84
2023/05/05 06:17:27;;;;;;;3.90;1.40;;;17.10;99.90;;;;;;5074184;28;20499;-84
2023/05/05 06:19:54;;;;;;;1.30;1.20;;;17.20;99.90;;;;;;5073882;28;20464;-84
2023/05/05 06:22:20;;;;;;;2.10;1.33;;;17.30;99.90;;;;;;5074037;28;20457;-84
2023/05/05 06:24:47;;;;;;;1.10;1.00;;;17.30;99.90;;;;;;5073985;28;20481;-84
2023/05/05 06:27:14;;;;;;;1.30;1.20;;;17.40;99.90;;;;;;5074016;28;20450;-84
2023/05/05 06:29:41;;;;;;;1.60;1.03;;;17.40;99.90;;;;;;5073980;28;20452;-84
2023/05/05 06:32:07;;;;;;;1.20;1.10;;;17.40;99.90;;;;;;5073838;28;20465;-84
2023/05/05 06:34:35;;;;;;;0.90;0.90;;;17.50;99.90;;;;;;5073842;28;20449;-84
2023/05/05 06:37:02;;;;;;;5.70;0.80;;;17.50;99.90;;;;;;5073889;28;20809;-84
2023/05/05 06:39:29;;;;;;;2.17;1.37;;;17.60;99.90;;;;;;5073800;28;20445;-84
2023/05/05 06:41:56;;;;;;;1.60;1.00;;;17.60;99.90;;;;;;5073657;28;20469;-84
2023/05/05 06:44:23;;;;;;;3.30;0.90;;;17.70;99.90;;;;;;5073689;28;20853;-84
2023/05/05 06:46:50;;;;;;;2.37;1.13;;;17.70;99.90;;;;;;5073416;28;20453;-84
2023/05/05 06:49:16;;;;;;;1.20;1.10;;;17.70;99.90;;;;;;5073653;28;20454;-84
2023/05/05 06:51:44;;;;;;;1.83;1.20;;;17.70;99.90;;;;;;5073348;28;20457;-84
2023/05/05 06:54:13;;;;;;;1.23;1.03;;;17.70;99.90;;;;;;5073596;28;20804;-84
2023/05/05 06:56:40;;;;;;;1.10;1.00;;;17.70;99.90;;;;;;5073518;28;20532;-84
2023/05/05 06:59:07;;;;;;;1.87;1.43;;;17.80;99.90;;;;;;5072875;28;20536;-84
2023/05/05 07:01:33;;;;;;;1.23;1.07;;;17.90;99.90;;;;;;5073111;28;20576;-83
2023/05/05 07:04:00;;;;;;;1.00;1.00;;;18.00;99.90;;;;;;5073109;28;20489;-84
2023/05/05 07:06:27;;;;;;;2.13;1.20;;;18.10;99.90;;;;;;5073433;28;20507;-83
2023/05/05 07:08:55;;;;;;;1.47;1.20;;;18.20;99.90;;;;;;5073418;28;20449;-84
2023/05/05 07:11:22;;;;;;;1.13;0.87;;;18.30;99.90;;;;;;5073296;28;20450;-84
2023/05/05 07:13:48;;;;;;;1.20;0.93;;;18.40;99.90;;;;;;5073111;28;20469;-84
2023/05/05 07:16:15;;;;;;;1.33;0.90;;;18.40;99.90;;;;;;5073321;28;20477;-84
2023/05/05 07:18:42;;;;;;;1.77;0.90;;;18.30;99.90;;;;;;5073265;28;20453;-83
2023/05/05 07:21:09;;;;;;;1.60;1.13;;;18.20;99.90;;;;;;5073235;28;20449;-84
2023/05/05 07:23:36;;;;;;;1.37;0.90;;;18.10;99.90;;;;;;5072897;28;20485;-83
2023/05/05 07:26:05;;;;;;;0.80;0.77;;;18.00;99.90;;;;;;5073231;28;20449;-84
2023/05/05 07:28:31;;;;;;;0.90;0.80;;;17.80;99.90;;;;;;5072920;28;20945;-84
2023/05/05 07:30:58;;;;;;;1.67;1.00;;;17.70;99.90;;;;;;5073225;28;20449;-83
2023/05/05 07:33:25;;;;;;;1.10;1.00;;;17.50;99.90;;;;;;5072815;28;21003;-84
2023/05/05 07:35:51;;;;;;;1.70;1.20;;;17.40;99.90;;;;;;5073770;28;20524;-84
2023/05/05 07:38:18;;;;;;;1.07;0.97;;;17.20;99.90;;;;;;5073109;28;20552;-84
2023/05/05 07:40:45;;;;;;;1.10;1.00;;;17.10;99.90;;;;;;5073121;28;20452;-84
2023/05/05 07:43:13;;;;;;;1.27;1.07;;;16.90;99.90;;;;;;5072987;28;20492;-84
2023/05/05 07:45:40;;;;;;;1.53;1.23;;;16.70;99.90;;;;;;5072680;28;20494;-84
2023/05/05 07:48:06;;;;;;;0.93;0.83;;;16.50;99.90;;;;;;5073031;28;20445;-84
2023/05/05 07:50:33;;;;;;;0.93;0.87;;;16.50;99.90;;;;;;5072990;28;20480;-84
2023/05/05 07:53:00;;;;;;;2.03;1.53;;;16.40;99.90;;;;;;5072899;28;20469;-84
2023/05/05 07:55:26;;;;;;;1.57;1.10;;;16.40;99.90;;;;;;5072945;28;20437;-84
2023/05/05 07:57:53;;;;;;;1.80;1.07;;;16.40;99.90;;;;;;5074444;28;20456;-85
2023/05/05 08:00:21;;;;;;;3.07;1.03;;;16.40;99.90;;;;;;5072963;28;20471;-84
2023/05/05 08:02:48;;;;;;;9.20;1.10;;;16.50;99.90;;;;;;5072510;28;20482;-85
2023/05/05 08:05:15;;;;;;;1.97;1.00;;;16.50;99.90;;;;;;5073194;28;20500;-85
2023/05/05 08:07:42;;;;;;;1.47;1.10;;;16.60;99.90;;;;;;5072892;28;20445;-84
2023/05/05 08:10:10;;;;;;;1.53;1.03;;;16.50;99.90;;;;;;5073955;28;20804;-85
2023/05/05 08:12:37;;;;;;;1.60;1.50;;;16.50;99.90;;;;;;5076555;28;20465;-85
2023/05/05 08:15:04;;;;;;;1.97;0.90;;;16.60;99.90;;;;;;5076553;28;20889;-85
2023/05/05 08:17:43;;;;;;;1.07;0.90;;;16.60;99.90;;;;;;5076478;28;20475;-84
2023/05/05 08:20:10;;;;;;;2.33;1.30;;;16.60;99.90;;;;;;5076179;28;20433;-85
2023/05/05 08:22:37;;;;;;;1.37;1.20;;;16.70;99.90;;;;;;5076340;28;20472;-85
2023/05/05 08:25:05;;;;;;;0.90;0.90;;;16.90;99.90;;;;;;5076366;28;20849;-85
2023/05/05 08:27:34;;;;;;;1.53;1.43;;;17.00;99.90;;;;;;5076320;28;20489;-85
2023/05/05 08:30:00;;;;;;;1.10;1.00;;;17.10;99.90;;;;;;5076272;28;20492;-85
2023/05/05 08:32:27;;;;;;;0.90;0.90;;;17.20;99.90;;;;;;5076227;28;20822;-85
2023/05/05 08:34:55;;;;;;;8.30;1.33;;;17.20;99.90;;;;;;5076239;28;20453;-85
2023/05/05 08:37:22;;;;;;;1.00;0.90;;;17.30;99.90;;;;;;5076194;28;20451;-85
2023/05/05 08:39:49;;;;;;;0.70;0.70;;;17.30;99.90;;;;;;5076178;28;20843;-85
2023/05/05 08:42:16;;;;;;;1.13;0.83;;;17.50;99.90;;;;;;5076041;28;20542;-84
2023/05/05 08:44:42;;;;;;;1.47;1.10;;;17.50;99.90;;;;;;5075722;28;21019;-85
2023/05/05 08:47:11;;;;;;;1.93;1.20;;;17.60;99.90;;;;;;5075911;28;20972;-85
2023/05/05 08:49:44;;;;;;;4.40;1.97;;;17.70;99.90;;;;;;5076126;28;20446;-85
2023/05/05 08:52:15;;;;;;;4.83;1.23;;;17.80;99.90;;;;;;5076063;28;20457;-86
2023/05/05 08:54:50;;;;;;;2.30;1.30;;;18.00;99.90;;;;;;5076195;28;20426;-85
2023/05/05 08:57:21;;;;;;;1.47;1.37;;;18.20;99.90;;;;;;5076089;28;20433;-85
2023/05/05 08:59:49;;;;;;;1.20;1.00;;;18.40;99.90;;;;;;5076059;28;20436;-85
2023/05/05 09:02:16;;;;;;;0.90;0.90;;;18.50;99.90;;;;;;5075661;28;20484;-85
2023/05/05 09:04:44;;;;;;;1.30;1.20;;;18.60;99.90;;;;;;5076011;28;20851;-85
2023/05/05 09:07:13;;;;;;;4.30;2.30;;;18.70;99.90;;;;;;5075895;28;20458;-85
2023/05/05 09:09:40;;;;;;;3.07;1.20;;;18.70;99.90;;;;;;5075548;28;20446;-85
2023/05/05 09:12:06;;;;;;;1.43;1.10;;;18.70;99.90;;;;;;5075463;28;20841;-85
2023/05/05 09:14:33;;;;;;;1.50;1.40;;;18.80;99.90;;;;;;5075474;28;20434;-85
2023/05/05 09:17:02;;;;;;;1.30;1.13;;;18.80;99.90;;;;;;5075147;28;20450;-85
2023/05/05 09:19:29;;;;;;;1.30;1.00;;;19.00;99.90;;;;;;5075355;28;20441;-85
2023/05/05 09:21:56;;;;;;;1.80;1.70;;;19.00;99.90;;;;;;5074224;28;20465;-85
2023/05/05 09:24:24;;;;;;;2.00;1.80;;;19.20;99.90;;;;;;5075551;28;20503;-85
2023/05/05 09:26:51;;;;;;;1.97;1.00;;;19.50;99.90;;;;;;5075346;28;20446;-85
2023/05/05 09:29:18;;;;;;;4.60;1.00;;;19.90;99.90;;;;;;5075305;28;20449;-85
2023/05/05 09:32:04;;;;;;;2.30;1.70;;;20.30;99.90;;;;;;5075122;28;20500;-85
2023/05/05 09:34:33;;;;;;;1.40;1.30;;;20.70;99.90;;;;;;5075229;28;20516;-84
2023/05/05 09:36:59;;;;;;;2.17;1.60;;;21.00;99.90;;;;;;5075132;28;20445;-85
2023/05/05 09:39:27;;;;;;;3.00;1.50;;;21.50;99.90;;;;;;5074804;28;20441;-84
2023/05/05 09:41:54;;;;;;;1.10;1.00;;;21.80;99.90;;;;;;5074624;28;20841;-85
2023/05/05 09:44:33;;;;;;;2.27;1.20;;;22.00;99.90;;;;;;5074631;28;20992;-85
2023/05/05 09:47:00;;;;;;;1.23;1.13;;;22.30;99.90;;;;;;5074839;28;20429;-85
2023/05/05 09:49:27;;;;;;;0.80;0.70;;;22.40;99.90;;;;;;5074487;28;20937;-85
2023/05/05 09:51:54;;;;;;;1.00;0.80;;;22.30;99.90;;;;;;5074849;28;20469;-85
2023/05/05 09:54:22;;;;;;;0.93;0.93;;;22.20;99.90;;;;;;5074697;28;20449;-85
2023/05/05 09:56:51;;;;;;;1.20;1.10;;;22.20;99.90;;;;;;5074580;28;20238;-86
2023/05/05 09:59:18;;;;;;;1.23;1.00;;;22.10;99.90;;;;;;5074378;28;20544;-85
2023/05/05 10:01:45;;;;;;;1.40;1.30;;;21.90;99.90;;;;;;5074071;28;21019;-85
2023/05/05 10:04:24;;;;;;;1.23;1.23;;;21.70;99.90;;;;;;5074500;28;20850;-85
2023/05/05 10:06:51;;;;;;;1.40;1.10;;;21.50;99.90;;;;;;5074533;28;20428;-85
2023/05/05 10:09:18;;;;;;;2.23;1.30;;;21.20;99.90;;;;;;5074431;28;20445;-85
2023/05/05 10:11:46;;;;;;;1.40;1.27;;;21.00;99.90;;;;;;5074308;28;20471;-85
2023/05/05 10:14:16;;;;;;;3.00;1.10;;;20.90;99.90;;;;;;5074070;28;21005;-85
2023/05/05 10:16:48;;;;;;;1.17;1.03;;;20.70;99.90;;;;;;5074635;28;20421;-85
2023/05/05 10:19:16;;;;;;;2.03;1.13;;;20.60;99.90;;;;;;5074335;28;20896;-85
2023/05/05 10:21:47;;;;;;;1.43;1.20;;;20.50;99.90;;;;;;5073922;28;20465;-85
2023/05/05 10:24:18;;;;;;;3.57;1.03;;;20.40;99.90;;;;;;5074423;28;20461;-85
2023/05/05 10:26:46;;;;;;;1.07;0.83;;;20.30;99.90;;;;;;5074029;28;20534;-85
2023/05/05 10:29:22;;;;;;;1.30;1.13;;;20.20;99.90;;;;;;5074112;28;20480;-85
2023/05/05 10:31:53;;;;;;;1.10;1.00;;;20.10;99.90;;;;;;5074017;28;20476;-85
2023/05/05 10:34:28;;;;;;;0.93;0.87;;;19.90;99.90;;;;;;5073064;28;20433;-85
2023/05/05 10:36:58;;;;;;;3.23;1.43;;;19.80;99.90;;;;;;5073676;28;20892;-85
2023/05/05 10:39:26;;;;;;;1.20;1.10;;;19.60;99.90;;;;;;5073886;28;20440;-84
2023/05/05 10:41:53;;;;;;;1.53;1.13;;;19.50;99.90;;;;;;5073532;28;20972;-86
2023/05/05 10:44:22;;;;;;;2.80;1.50;;;19.40;99.90;;;;;;5073434;28;20798;-86
2023/05/05 10:46:49;;;;;;;1.47;1.10;;;19.30;99.90;;;;;;5073896;28;20453;-86
2023/05/05 10:49:27;;;;;;;3.17;1.07;;;19.10;99.90;;;;;;5073614;28;20502;-86
2023/05/05 10:52:00;;;;;;;1.30;1.17;;;18.80;99.90;;;;;;5073523;28;20988;-86
2023/05/05 10:54:34;;;;;;;1.50;1.40;;;18.70;99.90;;;;;;5073791;28;20429;-86
2023/05/05 10:57:03;;;;;;;1.97;1.87;;;18.60;99.90;;;;;;5073682;28;20461;-86
2023/05/05 10:59:41;;;;;;;1.50;1.40;;;18.60;99.90;;;;;;5073622;28;20544;-86
2023/05/05 11:02:19;;;;;;;1.40;1.23;;;18.80;99.90;;;;;;5073104;28;20996;-86
2023/05/05 11:05:05;;;;;;;1.50;1.27;;;18.90;99.90;;;;;;5073500;28;20903;-86
2023/05/05 11:07:33;;;;;;;1.80;1.40;;;19.00;99.90;;;;;;5073671;28;20425;-84
2023/05/05 11:10:01;;;;;;;1.17;1.00;;;19.20;99.90;;;;;;5073267;28;20913;-86
2023/05/05 11:12:28;;;;;;;2.50;1.73;;;19.50;99.90;;;;;;5073424;28;20558;-85
2023/05/05 11:15:28;;;;;;;3.37;1.10;;;19.90;99.90;;;;;;5073359;28;20421;-86
2023/05/05 11:17:57;;;;;;;5.80;1.33;;;20.30;99.90;;;;;;5073158;28;20449;-86
2023/05/05 11:20:57;;;;;;;2.70;1.90;;;20.70;99.90;;;;;;5073329;28;20448;-86
2023/05/05 11:23:25;;;;;;;1.53;1.43;;;21.00;99.90;;;;;;5073776;28;20449;-86
2023/05/05 11:25:52;;;;;;;1.30;1.13;;;21.30;99.90;;;;;;5073147;28;20996;-86
2023/05/05 11:28:20;;;;;;;2.60;1.40;;;21.40;99.90;;;;;;5073513;28;20464;-85
2023/05/05 11:31:18;;;;;;;1.47;1.37;;;21.50;99.90;;;;;;5073389;28;20476;-86
2023/05/05 11:33:49;;;;;;;7.80;1.67;;;21.50;99.90;;;;;;5073248;28;20445;-85
2023/05/05 11:36:16;;;;;;;1.00;0.90;;;21.70;99.90;;;;;;5073473;28;20434;-86
2023/05/05 11:39:06;;;;;;;1.20;0.93;;;21.80;99.90;;;;;;5073160;28;20430;-86
2023/05/05 11:42:00;;;;;;;0.93;0.93;;;21.90;99.90;;;;;;5073990;28;20972;-86
2023/05/05 11:44:31;;;;;;;2.37;1.20;;;21.90;99.90;;;;;;5073009;28;20528;-86
2023/05/05 11:47:30;;;;;;;1.30;0.97;;;22.10;99.90;;;;;;5077378;28;20484;-86
2023/05/05 11:50:14;;;;;;;2.10;1.37;;;22.10;99.90;;;;;;5077232;28;20451;-86
2023/05/05 11:52:41;;;;;;;1.20;1.10;;;22.00;99.90;;;;;;5076881;28;20992;-86
2023/05/05 11:55:08;;;;;;;2.87;1.40;;;21.90;99.90;;;;;;5077331;28;20449;-86
2023/05/05 11:57:35;;;;;;;2.63;1.23;;;21.90;99.90;;;;;;5077065;28;20445;-86
2023/05/05 12:00:04;;;;;;;1.13;0.83;;;21.90;99.90;;;;;;5077167;28;20456;-86
2023/05/05 12:02:31;;;;;;;1.17;0.97;;;21.90;99.90;;;;;;5076668;28;20485;-86
2023/05/05 12:05:00;;;;;;;0.97;0.97;;;21.90;99.90;;;;;;5077105;28;20452;-86
2023/05/05 12:07:28;;;;;;;2.40;1.23;;;21.90;99.90;;;;;;5076897;28;20897;-86
2023/05/05 12:09:55;;;;;;;0.90;0.90;;;21.90;99.90;;;;;;5076566;28;20961;-85
2023/05/05 12:12:32;;;;;;;1.03;1.03;;;21.90;99.90;;;;;;5076231;28;20472;-85
2023/05/05 12:14:59;;;;;;;1.07;0.97;;;21.80;99.90;;;;;;5076923;28;20448;-85
2023/05/05 12:17:39;;;;;;;1.17;1.00;;;21.50;99.90;;;;;;5077018;28;20452;-85
2023/05/05 12:20:09;;;;;;;1.63;1.53;;;21.20;99.90;;;;;;5077062;28;20437;-85
2023/05/05 12:22:36;;;;;;;1.07;0.97;;;21.10;99.90;;;;;;5077148;28;20461;-85
2023/05/05 12:25:04;;;;;;;1.77;1.30;;;21.10;99.90;;;;;;5076687;28;20449;-85
2023/05/05 12:27:31;;;;;;;1.10;0.97;;;21.10;99.90;;;;;;5076370;28;20433;-86
2023/05/05 12:30:11;;;;;;;4.60;1.10;;;21.10;99.90;;;;;;5076614;28;20528;-85
2023/05/05 12:32:38;;;;;;;0.80;0.80;;;21.10;99.90;;;;;;5076184;28;21013;-86
2023/05/05 12:35:09;;;;;;;1.43;1.30;;;21.20;99.90;;;;;;5076457;28;20459;-85
2023/05/05 12:37:36;;;;;;;1.00;0.93;;;21.30;99.90;;;;;;5077248;28;20923;-86
2023/05/05 12:40:04;;;;;;;0.77;0.77;;;21.30;99.90;;;;;;5079362;28;20456;-87
2023/05/05 12:42:31;;;;;;;1.40;1.30;;;21.50;99.90;;;;;;5085484;28;20872;-86
2023/05/05 12:44:59;;;;;;;1.30;1.00;;;21.60;99.90;;;;;;5086600;28;20441;-86
2023/05/05 12:47:30;;;;;;;0.90;0.90;;;21.80;99.90;;;;;;5077400;28;20508;-86
2023/05/05 12:49:58;;;;;;;1.67;1.20;;;21.90;99.90;;;;;;5076229;28;20463;-82
2023/05/05 12:52:45;;;;;;;1.10;1.10;;;21.90;99.90;;;;;;5076151;28;20492;-83
2023/05/05 12:55:15;;;;;;;1.03;0.87;;;21.90;99.90;;;;;;5077168;28;20433;-86
2023/05/05 12:58:00;;;;;;;1.10;1.00;;;21.90;99.90;;;;;;5076972;28;20516;-86